createdAt,value
2019-01-27T00:03:12.908Z,98.30
2019-01-27T00:13:16.529Z,98.40
2019-01-27T00:23:20.115Z,98.30
2019-01-27T00:33:23.695Z,98.50
2019-01-27T00:43:27.282Z,98.50
2019-01-27T00:53:31.848Z,98.60
2019-01-27T01:03:35.437Z,98.60
2019-01-27T01:13:39.021Z,98.60
2019-01-27T01:23:42.629Z,98.60
2019-01-27T01:33:46.216Z,98.70
2019-01-27T01:43:49.783Z,98.70
2019-01-27T01:53:53.361Z,98.70
2019-01-27T02:03:56.965Z,98.70
2019-01-27T02:14:00.562Z,98.60
2019-01-27T02:24:04.185Z,98.70
2019-01-27T02:34:07.800Z,98.60
2019-01-27T02:44:11.370Z,98.60
2019-01-27T02:54:14.981Z,98.70
2019-01-27T03:04:18.563Z,98.60
2019-01-27T03:14:22.310Z,98.60
2019-01-27T03:24:25.887Z,98.60
2019-01-27T03:34:29.454Z,98.60
2019-01-27T03:44:33.027Z,98.50
2019-01-27T03:54:36.603Z,98.50
2019-01-27T04:04:40.178Z,98.50
2019-01-27T04:14:43.775Z,98.50
2019-01-27T04:24:47.337Z,98.40
2019-01-27T04:34:50.918Z,98.50
2019-01-27T04:44:54.479Z,98.60
2019-01-27T04:54:58.062Z,98.60
2019-01-27T05:05:01.640Z,98.50
2019-01-27T05:15:07.750Z,98.60
2019-01-27T05:25:11.770Z,98.60
2019-01-27T05:35:15.343Z,98.60
2019-01-27T05:45:18.987Z,98.90
2019-01-27T05:55:22.579Z,99.10
2019-01-27T06:05:26.150Z,99.30
2019-01-27T06:15:29.737Z,99.10
2019-01-27T06:25:33.330Z,99.10
2019-01-27T06:35:37.692Z,99.10
2019-01-27T06:45:41.262Z,99.10
2019-01-27T06:55:44.846Z,99.10
2019-01-27T07:05:57.135Z,99.10
2019-01-27T07:16:10.894Z,99.10
2019-01-27T07:26:36.358Z,99.10
2019-01-27T07:36:57.862Z,99.10
2019-01-27T07:47:36.458Z,99.10
2019-01-27T07:57:57.826Z,99.00
2019-01-27T08:08:21.602Z,99.10
2019-01-27T08:18:49.622Z,99.00
2019-01-27T08:29:10.378Z,99.00
2019-01-27T08:39:41.267Z,99.00
2019-01-27T08:49:44.858Z,98.90
2019-01-27T08:59:48.450Z,98.90
2019-01-27T09:10:06.628Z,98.70
2019-01-27T09:20:23.206Z,98.70
2019-01-27T09:30:55.036Z,98.60
2019-01-27T09:41:11.059Z,98.50
2019-01-27T09:51:25.666Z,98.50
2019-01-27T10:01:37.106Z,98.40
2019-01-27T10:11:50.012Z,98.30
2019-01-27T10:22:11.691Z,98.20
2019-01-27T10:32:32.505Z,98.00
2019-01-27T10:42:46.174Z,97.70
2019-01-27T10:53:01.598Z,97.50
2019-01-27T11:03:26.467Z,97.60
2019-01-27T11:13:49.960Z,97.80
2019-01-27T11:24:32.477Z,98.10
2019-01-27T11:34:57.986Z,98.10
2019-01-27T11:45:38.797Z,98.20
2019-01-27T11:55:42.370Z,98.10
2019-01-27T12:05:45.978Z,98.30
2019-01-27T12:15:49.580Z,98.30
2019-01-27T12:25:53.205Z,98.40
2019-01-27T12:35:57.883Z,98.50
2019-01-27T12:46:01.485Z,98.50
2019-01-27T12:56:24.375Z,98.60
2019-01-27T13:06:27.942Z,98.60
2019-01-27T13:16:31.573Z,98.50
2019-01-27T13:26:35.252Z,98.50
2019-01-27T13:36:42.062Z,98.50
2019-01-27T13:46:45.638Z,99.00
2019-01-27T13:56:49.214Z,98.60
2019-01-27T14:06:52.803Z,98.60
2019-01-27T14:16:56.417Z,98.50
2019-01-27T14:27:00.015Z,98.60
2019-01-27T14:37:12.511Z,98.40
2019-01-27T14:47:16.099Z,98.50
2019-01-27T14:57:19.706Z,98.50
2019-01-27T15:07:23.314Z,98.50
2019-01-27T15:17:26.902Z,98.50
2019-01-27T15:27:30.490Z,98.60
2019-01-27T15:37:34.079Z,98.50
2019-01-27T15:47:37.663Z,98.50
2019-01-27T15:57:49.319Z,98.50
2019-01-27T16:07:52.910Z,98.50
2019-01-27T16:17:56.648Z,98.60
2019-01-27T16:28:00.221Z,98.60
2019-01-27T16:38:03.819Z,98.70
2019-01-27T16:48:07.419Z,98.60
2019-01-27T16:58:11.015Z,98.60
2019-01-27T17:08:14.616Z,98.60
2019-01-27T17:18:18.207Z,98.60
2019-01-27T17:28:21.854Z,98.60
2019-01-27T17:38:25.943Z,98.80
2019-01-27T17:48:29.515Z,98.40
2019-01-27T17:59:11.476Z,98.50
2019-01-27T18:09:18.290Z,98.60
2019-01-27T18:19:21.966Z,98.50
2019-01-27T18:29:25.544Z,98.60
2019-01-27T18:39:29.141Z,98.50
2019-01-27T18:49:32.763Z,98.50
2019-01-27T18:59:54.237Z,98.60
2019-01-27T19:10:15.849Z,98.50
2019-01-27T19:20:44.615Z,98.50
2019-01-27T19:31:00.227Z,98.50
2019-01-27T19:41:28.966Z,98.80
2019-01-27T19:51:49.343Z,98.50
2019-01-27T20:02:24.226Z,98.40
2019-01-27T20:12:46.999Z,98.40
2019-01-27T20:23:08.606Z,98.20
2019-01-27T20:33:30.274Z,98.20
2019-01-27T20:43:53.246Z,98.10
2019-01-27T20:54:16.368Z,98.50
2019-01-27T21:04:36.302Z,98.10
2019-01-27T21:14:58.993Z,98.10
2019-01-27T21:25:02.597Z,98.20
2019-01-27T21:35:08.478Z,98.10
2019-01-27T21:45:12.587Z,98.20
2019-01-27T21:55:16.169Z,98.20
2019-01-27T22:05:19.745Z,98.20
2019-01-27T22:15:23.352Z,98.30
2019-01-27T22:25:26.918Z,98.20
2019-01-27T22:35:30.518Z,98.10
2019-01-27T22:45:34.098Z,98.20
2019-01-27T22:55:37.678Z,98.30
2019-01-27T23:05:41.270Z,98.20
2019-01-27T23:15:44.878Z,98.30
2019-01-27T23:25:50.311Z,98.40
2019-01-27T23:35:53.838Z,98.40
2019-01-27T23:45:57.422Z,98.20
2019-01-27T23:56:01.003Z,98.20
